Nashville, Tennessee
Traffic Map
Current Weather Conditions
Nashville, Tennessee
Clear
Clear
35°
Feels Like: 31°
Wind Chill: 31° Ceiling: Unl
Heat Index: 35° Visibility: 10mi
Dew Point: 23° Wind: 5mph
Humidity: 61% Direction: 10° (N)
Pressure: 30.28in Gusts: 0mph
Raw Report DataKBNA 160653Z 01004KT 10SM CLR 02/M05 A3028 RMK AO2 SLP256 T00171050
Traffic Incident Summary
Active as of:
Severity:
Category:
InformationThere was an issue retrieving the traffic information for this location. Please try a different location or try again shortly.
Advertisements
At Last! Intellicast now available for iPhone and Android